LVI weather

Harry Mwanga Nkumbula International Airport
Livingstone, Southern Province, Zambia

Public forecast

Using degrees Celsius for public forecast. Weather courtesy of forecast.io.

Current aviation weather report (METAR) for Harry Mwanga Nkumbula International Airport

Report is more than 2 hours old.

Retrieved 2019/10/19 08:00 UTC (5 hours ago):

FLHN 190800Z 09007KT CAVOK 31/05 Q1017

Closest aviation forecast (TAF) to Harry Mwanga Nkumbula International Airport

Forecast is more than 12 hours old.

Retrieved 2019/10/18 12:00 UTC (1 day ago):

TAF FLHN 181000Z 1812/1918 11010KT 9000 HZ SKC FM181800 VRB04KT CAVOK BECMG 1906/1908 09010KT 9000 HZ SKC BECMG 1913/1915 12005KT